createdAt,value
2019-02-02T00:00:12.529Z,48.00
2019-02-02T00:01:28.810Z,48.28
2019-02-02T00:02:33.905Z,49.77
2019-02-02T00:03:39.145Z,59.30
2019-02-02T00:04:44.179Z,56.77
2019-02-02T00:05:49.395Z,56.88
2019-02-02T00:06:54.404Z,61.80
2019-02-02T00:07:59.506Z,62.48
2019-02-02T00:09:07.540Z,59.60
2019-02-02T00:10:13.115Z,58.50
2019-02-02T00:12:20.389Z,62.20
2019-02-02T00:13:25.570Z,57.30
2019-02-02T00:14:31.492Z,58.95
2019-02-02T00:15:36.625Z,51.45
2019-02-02T00:16:41.745Z,54.58
2019-02-02T00:17:46.861Z,57.35
2019-02-02T00:18:51.953Z,52.98
2019-02-02T00:19:57.110Z,57.05
2019-02-02T00:21:02.160Z,55.90
2019-02-02T00:22:07.529Z,57.03
2019-02-02T00:23:12.636Z,53.15
2019-02-02T00:24:17.732Z,55.75
2019-02-02T00:25:22.951Z,60.60
2019-02-02T00:26:28.089Z,53.95
2019-02-02T00:27:41.127Z,52.03
2019-02-02T00:28:39.969Z,53.50
2019-02-02T00:29:44.988Z,56.37
2019-02-02T00:30:50.101Z,50.58
2019-02-02T00:31:55.212Z,47.65
2019-02-02T00:33:00.337Z,52.88
2019-02-02T00:34:05.691Z,53.75
2019-02-02T00:35:10.841Z,51.02
2019-02-02T00:36:15.887Z,51.42
2019-02-02T00:37:21.066Z,49.88
2019-02-02T00:38:26.109Z,49.10
2019-02-02T00:39:31.278Z,45.85
2019-02-02T00:40:36.368Z,48.70
2019-02-02T00:41:41.461Z,52.17
2019-02-02T00:42:46.610Z,48.25
2019-02-02T00:43:51.699Z,47.93
2019-02-02T00:44:56.988Z,49.70
2019-02-02T00:46:01.987Z,46.50
2019-02-02T00:47:07.117Z,45.48
2019-02-02T00:48:12.251Z,46.90
2019-02-02T00:49:17.338Z,42.00
2019-02-02T00:50:22.555Z,45.15
2019-02-02T00:51:27.833Z,45.00
2019-02-02T00:52:32.956Z,42.85
2019-02-02T00:53:38.049Z,46.73
2019-02-02T00:54:43.068Z,45.25
2019-02-02T00:55:48.173Z,45.52
2019-02-02T00:56:53.272Z,41.75
2019-02-02T00:57:58.302Z,43.85
2019-02-02T00:59:03.310Z,42.43
2019-02-02T01:00:10.893Z,44.50
2019-02-02T01:01:15.972Z,41.95
2019-02-02T01:02:21.136Z,43.30
2019-02-02T01:03:27.339Z,43.42
2019-02-02T01:04:32.343Z,40.98
2019-02-02T01:05:37.444Z,41.70
2019-02-02T01:06:42.685Z,43.83
2019-02-02T01:07:48.938Z,41.20
2019-02-02T01:08:53.943Z,38.92
2019-02-02T01:09:59.048Z,40.50
2019-02-02T01:11:04.757Z,40.25
2019-02-02T01:12:09.917Z,37.85
2019-02-02T01:13:16.094Z,39.40
2019-02-02T01:14:21.124Z,37.70
2019-02-02T01:15:26.651Z,38.25
2019-02-02T01:16:31.727Z,37.48
2019-02-02T01:17:36.825Z,37.83
2019-02-02T01:18:41.956Z,38.08
2019-02-02T01:19:46.968Z,40.15
2019-02-02T01:20:52.021Z,39.42
2019-02-02T01:21:57.097Z,39.27
2019-02-02T01:23:02.230Z,42.88
2019-02-02T01:24:07.412Z,44.10
2019-02-02T01:25:12.649Z,41.40
2019-02-02T01:26:17.686Z,40.03
2019-02-02T01:27:22.806Z,41.85
2019-02-02T01:28:27.969Z,40.23
2019-02-02T01:29:33.014Z,40.38
2019-02-02T01:30:38.065Z,41.37
2019-02-02T01:31:43.176Z,39.23
2019-02-02T01:32:48.369Z,42.93
2019-02-02T01:33:53.488Z,39.55
2019-02-02T01:34:58.674Z,41.68
2019-02-02T01:36:03.761Z,39.48
2019-02-02T01:37:08.848Z,37.53
2019-02-02T01:38:13.933Z,38.50
2019-02-02T01:39:19.136Z,37.13
2019-02-02T01:40:24.344Z,35.90
2019-02-02T01:41:29.419Z,42.40
2019-02-02T01:42:34.538Z,39.08
2019-02-02T01:43:39.637Z,38.50
2019-02-02T01:44:44.833Z,39.90
2019-02-02T01:45:49.925Z,43.60
2019-02-02T01:46:55.036Z,45.95
2019-02-02T01:48:00.131Z,44.60
2019-02-02T01:49:06.261Z,46.60
2019-02-02T01:50:14.229Z,41.18
2019-02-02T01:51:20.208Z,40.28
2019-02-02T01:52:25.285Z,41.08
2019-02-02T01:53:30.452Z,42.10
2019-02-02T01:54:38.228Z,36.60
2019-02-02T01:55:42.177Z,38.48
2019-02-02T01:56:47.197Z,38.00
2019-02-02T01:57:52.333Z,37.35
2019-02-02T01:58:57.352Z,40.12
2019-02-02T02:00:02.549Z,42.53
2019-02-02T02:01:07.934Z,41.98
2019-02-02T02:02:13.048Z,40.52
2019-02-02T02:03:18.145Z,40.03
2019-02-02T02:04:23.284Z,47.55
2019-02-02T02:05:28.450Z,43.25
2019-02-02T02:06:33.533Z,45.50
2019-02-02T02:07:38.704Z,45.20
2019-02-02T02:08:43.772Z,47.50
2019-02-02T02:09:48.911Z,44.27
2019-02-02T02:10:54.002Z,45.92
2019-02-02T02:11:59.044Z,45.08
2019-02-02T02:13:04.162Z,42.35
2019-02-02T02:14:09.263Z,42.17
2019-02-02T02:15:15.841Z,39.67
2019-02-02T02:16:20.933Z,45.28
2019-02-02T02:17:26.218Z,40.75
2019-02-02T02:18:31.250Z,46.53
2019-02-02T02:19:36.295Z,40.05
2019-02-02T02:20:41.417Z,42.03
2019-02-02T02:21:46.529Z,41.35
2019-02-02T02:22:51.639Z,42.13
2019-02-02T02:23:56.649Z,37.55
2019-02-02T02:25:01.681Z,38.02
2019-02-02T02:26:06.773Z,36.93
2019-02-02T02:27:11.831Z,36.40
2019-02-02T02:28:27.459Z,36.28
2019-02-02T02:29:23.547Z,37.60
2019-02-02T02:30:28.645Z,38.23
2019-02-02T02:31:33.747Z,39.10
2019-02-02T02:32:38.811Z,42.95
2019-02-02T02:33:43.859Z,48.10
2019-02-02T02:34:48.940Z,44.63
2019-02-02T02:35:53.977Z,42.08
2019-02-02T02:36:59.016Z,36.53
2019-02-02T02:38:04.107Z,32.42
2019-02-02T02:39:09.897Z,32.28
2019-02-02T02:40:18.161Z,34.70
2019-02-02T02:41:23.244Z,33.83
2019-02-02T02:42:28.294Z,31.95
2019-02-02T02:43:33.430Z,35.45
2019-02-02T02:44:38.551Z,37.30
2019-02-02T02:45:43.616Z,35.52
2019-02-02T02:46:48.710Z,34.83
2019-02-02T02:47:53.722Z,38.50
2019-02-02T02:48:58.745Z,42.73
2019-02-02T02:50:04.738Z,39.63
2019-02-02T02:51:09.786Z,38.90
2019-02-02T02:52:14.920Z,37.88
2019-02-02T02:53:19.944Z,38.75
2019-02-02T02:54:26.077Z,42.48
2019-02-02T02:55:31.319Z,44.08
2019-02-02T02:56:36.632Z,41.50
2019-02-02T02:57:41.665Z,37.17
2019-02-02T02:58:47.897Z,37.65
2019-02-02T02:59:53.052Z,39.67
2019-02-02T03:00:58.148Z,40.80
2019-02-02T03:02:03.507Z,40.28
2019-02-02T03:03:08.848Z,42.75
2019-02-02T03:04:13.864Z,40.95
2019-02-02T03:05:19.279Z,41.02
2019-02-02T03:06:24.467Z,42.85
2019-02-02T03:07:29.564Z,38.60
2019-02-02T03:08:34.698Z,41.08
2019-02-02T03:09:39.722Z,44.33
2019-02-02T03:10:44.812Z,44.33
2019-02-02T03:11:49.834Z,41.98
2019-02-02T03:12:55.069Z,43.33
2019-02-02T03:14:00.081Z,38.02
2019-02-02T03:15:06.428Z,43.75
2019-02-02T03:16:11.554Z,43.85
2019-02-02T03:17:16.639Z,43.13
2019-02-02T03:18:21.934Z,41.15
2019-02-02T03:19:27.017Z,38.38
2019-02-02T03:20:32.101Z,40.85
2019-02-02T03:21:37.202Z,41.08
2019-02-02T03:22:42.222Z,42.83
2019-02-02T03:23:47.303Z,40.83
2019-02-02T03:24:52.326Z,42.60
2019-02-02T03:25:57.330Z,40.90
2019-02-02T03:27:02.453Z,45.10
2019-02-02T03:28:07.554Z,38.90
2019-02-02T03:29:12.637Z,42.95
2019-02-02T03:30:19.375Z,40.45
2019-02-02T03:31:24.463Z,47.88
2019-02-02T03:32:29.594Z,40.55
2019-02-02T03:33:34.697Z,43.28
2019-02-02T03:34:39.908Z,38.80
2019-02-02T03:35:45.110Z,41.45
2019-02-02T03:36:50.174Z,43.08
2019-02-02T03:37:55.382Z,37.15
2019-02-02T03:39:00.486Z,40.95
2019-02-02T03:40:08.573Z,35.85
2019-02-02T03:41:13.957Z,37.30
2019-02-02T03:42:19.096Z,35.23
2019-02-02T03:43:24.260Z,34.38
2019-02-02T03:44:29.388Z,39.18
2019-02-02T03:45:34.416Z,37.67
2019-02-02T03:46:39.415Z,37.80
2019-02-02T03:47:44.507Z,35.03
2019-02-02T03:48:49.578Z,40.67
2019-02-02T03:49:54.649Z,37.65
2019-02-02T03:50:59.682Z,37.48
2019-02-02T03:52:04.705Z,36.08
2019-02-02T03:53:09.721Z,36.23
2019-02-02T03:54:15.168Z,34.83
2019-02-02T03:55:20.282Z,37.53
2019-02-02T03:56:25.283Z,34.48
2019-02-02T03:57:30.402Z,34.18
2019-02-02T03:58:35.528Z,34.58
2019-02-02T03:59:40.632Z,35.17
2019-02-02T04:00:45.729Z,36.45
2019-02-02T04:01:50.753Z,35.60
2019-02-02T04:02:55.885Z,33.50
2019-02-02T04:04:01.017Z,34.83
2019-02-02T04:05:08.480Z,35.90
2019-02-02T04:06:13.489Z,34.25
2019-02-02T04:07:18.482Z,33.23
2019-02-02T04:08:23.555Z,33.20
2019-02-02T04:09:28.581Z,35.33
2019-02-02T04:10:33.684Z,33.90
2019-02-02T04:11:38.768Z,34.27
2019-02-02T04:12:43.871Z,33.18
2019-02-02T04:13:48.960Z,33.88
2019-02-02T04:14:54.059Z,34.05
2019-02-02T04:15:59.176Z,31.87
2019-02-02T04:17:04.376Z,30.65
2019-02-02T04:18:09.472Z,33.35
2019-02-02T04:19:14.500Z,31.50
2019-02-02T04:20:21.755Z,32.33
2019-02-02T04:21:26.839Z,30.15
2019-02-02T04:22:31.927Z,29.45
2019-02-02T04:23:37.037Z,31.27
2019-02-02T04:24:42.100Z,30.43
2019-02-02T04:25:47.136Z,29.70
2019-02-02T04:26:52.213Z,30.48
2019-02-02T04:27:57.308Z,29.35
2019-02-02T04:29:02.317Z,28.38
2019-02-02T04:30:10.098Z,28.98
2019-02-02T04:31:15.197Z,30.82
2019-02-02T04:32:20.253Z,26.93
2019-02-02T04:33:25.482Z,28.15
2019-02-02T04:34:30.509Z,28.38
2019-02-02T04:35:35.617Z,28.67
2019-02-02T04:36:40.722Z,29.30
2019-02-02T04:37:45.812Z,27.85
2019-02-02T04:38:51.793Z,27.70
2019-02-02T04:39:56.809Z,29.87
2019-02-02T04:41:02.010Z,26.77
2019-02-02T04:42:08.032Z,27.37
2019-02-02T04:43:13.109Z,28.90
2019-02-02T04:44:18.161Z,27.77
2019-02-02T04:45:23.325Z,27.90
2019-02-02T04:46:28.425Z,28.20
2019-02-02T04:47:33.703Z,27.40
2019-02-02T04:48:38.870Z,29.50
2019-02-02T04:49:43.970Z,28.80
2019-02-02T04:50:50.121Z,29.07
2019-02-02T04:51:55.170Z,27.00
2019-02-02T04:53:00.173Z,28.50
2019-02-02T04:54:06.360Z,29.15
2019-02-02T04:55:12.941Z,29.50
2019-02-02T04:56:18.224Z,29.15
2019-02-02T04:57:23.263Z,28.30
2019-02-02T04:58:28.402Z,32.78
2019-02-02T04:59:33.532Z,30.77
2019-02-02T05:00:38.623Z,35.35
2019-02-02T05:01:43.717Z,32.55
2019-02-02T05:02:48.846Z,34.63
2019-02-02T05:03:53.842Z,33.13
2019-02-02T05:04:58.852Z,31.73
2019-02-02T05:06:03.903Z,30.92
2019-02-02T05:07:08.985Z,32.50
2019-02-02T05:08:14.080Z,32.70
2019-02-02T05:09:19.177Z,35.68
2019-02-02T05:10:24.385Z,33.10
2019-02-02T05:11:29.486Z,31.20
2019-02-02T05:12:34.505Z,31.68
2019-02-02T05:13:39.679Z,29.87
2019-02-02T05:14:44.750Z,32.55
2019-02-02T05:15:49.859Z,30.10
2019-02-02T05:16:54.948Z,35.33
2019-02-02T05:18:00.071Z,32.00
2019-02-02T05:19:05.213Z,30.23
2019-02-02T05:20:11.469Z,31.65
2019-02-02T05:21:16.577Z,30.32
2019-02-02T05:22:21.800Z,30.08
2019-02-02T05:23:26.891Z,29.52
2019-02-02T05:24:31.987Z,33.90
2019-02-02T05:25:37.054Z,28.77
2019-02-02T05:26:42.069Z,31.42
2019-02-02T05:27:47.285Z,30.23
2019-02-02T05:28:52.381Z,30.20
2019-02-02T05:29:57.593Z,29.32
2019-02-02T05:31:02.605Z,29.80
2019-02-02T05:32:07.699Z,27.87
2019-02-02T05:33:12.810Z,28.38
2019-02-02T05:34:17.846Z,28.90
2019-02-02T05:35:22.953Z,30.05
2019-02-02T05:36:27.977Z,30.00
2019-02-02T05:37:33.062Z,28.45
2019-02-02T05:38:38.096Z,28.60
2019-02-02T05:39:43.180Z,28.90
2019-02-02T05:40:48.273Z,27.73
2019-02-02T05:41:53.348Z,26.85
2019-02-02T05:42:58.430Z,27.93
2019-02-02T05:44:03.464Z,29.30
2019-02-02T05:45:10.304Z,29.85
2019-02-02T05:46:15.393Z,28.15
2019-02-02T05:47:20.413Z,29.75
2019-02-02T05:48:25.545Z,29.48
2019-02-02T05:49:30.649Z,27.55
2019-02-02T05:50:35.665Z,29.40
2019-02-02T05:51:41.144Z,28.00
2019-02-02T05:52:46.350Z,27.45
2019-02-02T05:53:51.364Z,26.15
2019-02-02T05:54:56.423Z,27.50
2019-02-02T05:56:01.512Z,29.30
2019-02-02T05:57:06.598Z,27.30
2019-02-02T05:58:11.680Z,28.90
2019-02-02T05:59:16.751Z,29.67
2019-02-02T06:00:32.307Z,27.62
2019-02-02T06:01:37.392Z,27.07
2019-02-02T06:02:42.493Z,27.13
2019-02-02T06:03:47.583Z,27.42
2019-02-02T06:04:52.692Z,28.70
2019-02-02T06:05:57.712Z,32.08
2019-02-02T06:07:02.805Z,34.48
2019-02-02T06:08:07.905Z,31.85
2019-02-02T06:09:13.003Z,32.75
2019-02-02T06:10:18.157Z,29.80
2019-02-02T06:11:23.193Z,30.60
2019-02-02T06:12:28.262Z,32.60
2019-02-02T06:13:33.284Z,31.10
2019-02-02T06:14:38.368Z,31.30
2019-02-02T06:15:43.585Z,31.02
2019-02-02T06:16:48.664Z,32.00
2019-02-02T06:18:04.956Z,32.40
2019-02-02T06:19:21.829Z,32.58
2019-02-02T06:20:38.600Z,36.98
2019-02-02T06:21:55.458Z,32.35
2019-02-02T06:23:10.593Z,37.17
2019-02-02T06:24:34.760Z,40.03
2019-02-02T06:25:58.872Z,36.30
2019-02-02T06:27:15.333Z,38.02
2019-02-02T06:28:31.889Z,35.40
2019-02-02T06:29:48.201Z,43.25
2019-02-02T06:31:04.712Z,39.27
2019-02-02T06:32:21.146Z,39.85
2019-02-02T06:33:37.630Z,40.17
2019-02-02T06:34:54.076Z,40.90
2019-02-02T06:36:11.037Z,39.75
2019-02-02T06:37:31.138Z,32.60
2019-02-02T06:38:48.001Z,36.38
2019-02-02T06:40:04.533Z,33.65
2019-02-02T06:41:20.958Z,29.00
2019-02-02T06:42:37.885Z,27.52
2019-02-02T06:43:53.118Z,29.12
2019-02-02T06:45:18.792Z,27.65
2019-02-02T06:47:02.064Z,26.82
2019-02-02T06:48:19.253Z,28.05
2019-02-02T06:49:36.392Z,28.67
2019-02-02T06:50:52.981Z,25.52
2019-02-02T06:52:09.245Z,30.57
2019-02-02T06:53:25.624Z,30.45
2019-02-02T06:54:42.181Z,29.80
2019-02-02T06:55:58.625Z,30.90
2019-02-02T06:57:15.372Z,30.45
2019-02-02T06:58:32.141Z,39.15
2019-02-02T06:59:48.512Z,26.82
2019-02-02T07:01:04.816Z,31.23
2019-02-02T07:02:21.793Z,38.28
2019-02-02T07:03:38.284Z,31.25
2019-02-02T07:04:54.720Z,35.45
2019-02-02T07:06:11.016Z,38.00
2019-02-02T07:07:27.422Z,36.58
2019-02-02T07:08:44.064Z,38.70
2019-02-02T07:10:00.488Z,36.50
2019-02-02T07:11:17.238Z,39.20
2019-02-02T07:12:34.412Z,40.10
2019-02-02T07:13:51.033Z,37.08
2019-02-02T07:15:07.769Z,36.80
2019-02-02T07:16:24.248Z,39.98
2019-02-02T07:17:40.661Z,34.23
2019-02-02T07:18:57.317Z,32.60
2019-02-02T07:20:13.947Z,32.93
2019-02-02T07:21:30.456Z,32.67
2019-02-02T07:22:47.046Z,36.83
2019-02-02T07:24:04.038Z,36.93
2019-02-02T07:25:20.514Z,36.10
2019-02-02T07:26:36.928Z,45.45
2019-02-02T07:27:53.402Z,38.65
2019-02-02T07:29:10.229Z,35.45
2019-02-02T07:30:29.115Z,35.58
2019-02-02T07:31:45.904Z,37.33
2019-02-02T07:33:02.486Z,35.78
2019-02-02T07:34:18.863Z,43.10
2019-02-02T07:35:35.364Z,37.15
2019-02-02T07:36:51.962Z,37.88
2019-02-02T07:38:08.479Z,38.28
2019-02-02T07:39:25.610Z,34.25
2019-02-02T07:40:42.125Z,38.75
2019-02-02T07:41:58.662Z,36.05
2019-02-02T07:43:15.346Z,33.60
2019-02-02T07:44:31.897Z,35.45
2019-02-02T07:45:48.306Z,38.85
2019-02-02T07:47:04.828Z,30.35
2019-02-02T07:48:21.817Z,35.88
2019-02-02T07:49:38.296Z,31.27
2019-02-02T07:50:54.678Z,34.38
2019-02-02T07:52:11.196Z,29.35
2019-02-02T07:53:27.883Z,29.67
2019-02-02T07:54:44.424Z,29.60
2019-02-02T07:56:01.562Z,31.20
2019-02-02T07:57:17.882Z,28.25
2019-02-02T07:58:34.649Z,26.00
2019-02-02T07:59:51.098Z,27.30
2019-02-02T08:01:07.985Z,24.98
2019-02-02T08:02:25.534Z,29.20
2019-02-02T08:03:41.980Z,23.52
2019-02-02T08:04:58.390Z,29.25
2019-02-02T08:06:14.965Z,24.50
2019-02-02T08:07:31.641Z,26.87
2019-02-02T08:08:48.661Z,29.95
2019-02-02T08:10:05.481Z,27.40
2019-02-02T08:11:20.778Z,29.45
2019-02-02T08:12:44.870Z,28.73
2019-02-02T08:14:01.285Z,33.92
2019-02-02T08:15:18.758Z,31.07
2019-02-02T08:16:35.007Z,36.03
2019-02-02T08:17:51.472Z,28.27
2019-02-02T08:19:08.635Z,29.90
2019-02-02T08:20:25.432Z,25.23
2019-02-02T08:21:41.963Z,27.77
2019-02-02T08:22:58.504Z,28.12
2019-02-02T08:24:15.696Z,31.97
2019-02-02T08:25:32.113Z,32.85
2019-02-02T08:26:48.370Z,24.65
2019-02-02T08:28:05.335Z,26.12
2019-02-02T08:29:24.684Z,23.83
2019-02-02T08:30:51.987Z,23.67
2019-02-02T08:32:00.136Z,27.37
2019-02-02T08:33:16.844Z,37.08
2019-02-02T08:34:33.777Z,51.40
2019-02-02T08:35:50.606Z,28.38
2019-02-02T08:37:06.985Z,29.18
2019-02-02T08:38:23.731Z,34.18
2019-02-02T08:39:40.204Z,30.15
2019-02-02T08:40:57.025Z,30.05
2019-02-02T08:42:13.561Z,28.40
2019-02-02T08:43:30.507Z,31.33
2019-02-02T08:44:46.878Z,30.55
2019-02-02T08:46:03.213Z,27.80
2019-02-02T08:47:19.670Z,28.87
2019-02-02T08:48:36.646Z,28.73
2019-02-02T08:49:53.065Z,30.30
2019-02-02T08:51:10.503Z,26.60
2019-02-02T08:52:27.280Z,38.05
2019-02-02T08:53:43.669Z,28.05
2019-02-02T08:55:00.881Z,27.42
2019-02-02T08:56:17.394Z,35.35
2019-02-02T08:57:34.593Z,32.50
2019-02-02T08:58:51.093Z,32.55
2019-02-02T09:00:07.773Z,36.68
2019-02-02T09:01:24.234Z,34.13
2019-02-02T09:02:40.974Z,35.17
2019-02-02T09:03:57.498Z,33.67
2019-02-02T09:05:14.211Z,37.88
2019-02-02T09:06:38.694Z,36.20
2019-02-02T09:07:49.889Z,30.85
2019-02-02T09:09:06.394Z,37.75
2019-02-02T09:10:23.028Z,30.05
2019-02-02T09:11:39.330Z,35.55
2019-02-02T09:12:56.504Z,32.80
2019-02-02T09:14:12.956Z,31.07
2019-02-02T09:15:29.435Z,35.63
2019-02-02T09:16:46.690Z,34.83
2019-02-02T09:18:03.612Z,36.80
2019-02-02T09:19:20.104Z,38.70
2019-02-02T09:20:36.434Z,33.53
2019-02-02T09:21:53.418Z,42.25
2019-02-02T09:23:09.928Z,30.72
2019-02-02T09:24:26.758Z,32.93
2019-02-02T09:25:43.853Z,35.73
2019-02-02T09:27:00.981Z,33.28
2019-02-02T09:28:17.673Z,33.75
2019-02-02T09:29:34.885Z,31.90
2019-02-02T09:30:51.209Z,29.90
2019-02-02T09:32:08.446Z,35.65
2019-02-02T09:33:25.150Z,35.25
2019-02-02T09:34:42.366Z,31.12
2019-02-02T09:35:58.904Z,30.95
2019-02-02T09:37:15.267Z,32.15
2019-02-02T09:38:31.645Z,32.80
2019-02-02T09:39:48.107Z,32.60
2019-02-02T09:41:05.454Z,33.15
2019-02-02T09:42:21.961Z,34.13
2019-02-02T09:43:39.741Z,34.35
2019-02-02T09:44:58.777Z,33.23
2019-02-02T09:46:15.400Z,30.27
2019-02-02T09:47:34.036Z,32.33
2019-02-02T09:48:51.225Z,32.00
2019-02-02T09:50:08.629Z,30.80
2019-02-02T09:51:25.077Z,30.80
2019-02-02T09:52:42.043Z,34.38
2019-02-02T09:53:58.420Z,30.43
2019-02-02T09:55:14.766Z,31.77
2019-02-02T09:56:31.289Z,32.95
2019-02-02T09:57:47.633Z,33.95
2019-02-02T09:59:04.097Z,31.25
2019-02-02T10:00:21.027Z,32.28
2019-02-02T10:01:37.560Z,31.82
2019-02-02T10:02:54.657Z,35.28
2019-02-02T10:04:11.825Z,39.42
2019-02-02T10:05:28.821Z,38.17
2019-02-02T10:06:45.367Z,36.17
2019-02-02T10:08:02.006Z,35.63
2019-02-02T10:09:18.594Z,35.13
2019-02-02T10:10:35.020Z,33.95
2019-02-02T10:11:51.810Z,37.88
2019-02-02T10:13:08.592Z,35.35
2019-02-02T10:14:25.323Z,38.33
2019-02-02T10:15:42.036Z,30.40
2019-02-02T10:16:58.548Z,32.75
2019-02-02T10:18:15.128Z,34.38
2019-02-02T10:19:31.674Z,35.55
2019-02-02T10:20:46.974Z,35.83
2019-02-02T10:22:03.542Z,33.70
2019-02-02T10:23:22.653Z,36.45
2019-02-02T10:24:39.472Z,33.15
2019-02-02T10:25:56.052Z,38.38
2019-02-02T10:27:12.570Z,35.15
2019-02-02T10:28:29.866Z,33.30
2019-02-02T10:29:46.493Z,34.43
2019-02-02T10:31:02.841Z,35.45
2019-02-02T10:32:19.541Z,33.05
2019-02-02T10:33:36.686Z,35.10
2019-02-02T10:34:53.069Z,35.63
2019-02-02T10:36:09.565Z,36.88
2019-02-02T10:37:26.014Z,37.83
2019-02-02T10:38:42.767Z,33.55
2019-02-02T10:39:58.001Z,41.02
2019-02-02T10:41:22.084Z,34.67
2019-02-02T10:42:38.313Z,36.95
2019-02-02T10:43:55.007Z,36.63
2019-02-02T10:45:11.639Z,36.85
2019-02-02T10:46:28.076Z,35.05
2019-02-02T10:47:44.543Z,30.15
2019-02-02T10:49:02.113Z,37.65
2019-02-02T10:50:18.932Z,33.67
2019-02-02T10:51:35.379Z,33.48
2019-02-02T10:52:52.562Z,32.42
2019-02-02T10:54:09.059Z,33.38
2019-02-02T10:55:26.221Z,33.20
2019-02-02T10:56:42.958Z,30.85
2019-02-02T10:57:59.238Z,31.90
2019-02-02T10:59:16.388Z,32.60
2019-02-02T11:00:32.701Z,30.62
2019-02-02T11:01:51.096Z,31.35
2019-02-02T11:03:07.848Z,31.97
2019-02-02T11:04:24.997Z,32.17
2019-02-02T11:05:41.773Z,35.58
2019-02-02T11:06:57.083Z,32.08
2019-02-02T11:08:21.215Z,33.92
2019-02-02T11:09:45.538Z,29.87
2019-02-02T11:11:02.886Z,31.68
2019-02-02T11:12:19.515Z,31.60
2019-02-02T11:13:36.096Z,33.60
2019-02-02T11:14:52.818Z,32.35
2019-02-02T11:16:09.890Z,32.42
2019-02-02T11:17:26.351Z,33.15
2019-02-02T11:18:42.859Z,31.10
2019-02-02T11:19:59.981Z,32.70
2019-02-02T11:21:17.034Z,36.28
2019-02-02T11:22:34.289Z,32.17
2019-02-02T11:23:50.705Z,30.77
2019-02-02T11:25:07.430Z,32.00
2019-02-02T11:26:24.744Z,31.15
2019-02-02T11:27:41.413Z,32.55
2019-02-02T11:28:58.313Z,29.80
2019-02-02T11:30:14.834Z,31.15
2019-02-02T11:31:31.381Z,31.87
2019-02-02T11:32:47.725Z,31.42
2019-02-02T11:34:04.934Z,31.45
2019-02-02T11:35:21.551Z,30.92
2019-02-02T11:36:37.953Z,32.63
2019-02-02T11:37:55.130Z,32.03
2019-02-02T11:39:11.885Z,28.52
2019-02-02T11:40:28.333Z,30.70
2019-02-02T11:41:45.156Z,31.90
2019-02-02T11:43:02.386Z,30.85
2019-02-02T11:44:20.166Z,30.75
2019-02-02T11:45:36.930Z,31.52
2019-02-02T11:46:53.592Z,32.08
2019-02-02T11:48:10.057Z,33.88
2019-02-02T11:49:26.933Z,32.95
2019-02-02T11:50:43.335Z,33.25
2019-02-02T11:51:59.844Z,33.25
2019-02-02T11:53:16.490Z,34.15
2019-02-02T11:54:33.716Z,31.73
2019-02-02T11:55:50.432Z,37.13
2019-02-02T11:57:07.695Z,32.28
2019-02-02T11:58:24.181Z,36.53
2019-02-02T11:59:40.568Z,30.97
2019-02-02T12:00:57.121Z,31.68
2019-02-02T12:02:14.966Z,32.33
2019-02-02T12:03:31.471Z,32.53
2019-02-02T12:04:48.258Z,33.13
2019-02-02T12:06:04.980Z,30.50
2019-02-02T12:07:21.520Z,31.50
2019-02-02T12:08:38.064Z,32.30
2019-02-02T12:09:54.664Z,33.02
2019-02-02T12:11:11.216Z,33.35
2019-02-02T12:12:28.261Z,32.60
2019-02-02T12:13:45.409Z,33.28
2019-02-02T12:15:02.350Z,31.02
2019-02-02T12:16:20.663Z,31.10
2019-02-02T12:17:39.820Z,30.40
2019-02-02T12:18:57.648Z,28.95
2019-02-02T12:20:14.099Z,30.12
2019-02-02T12:21:38.266Z,29.27
2019-02-02T12:22:55.112Z,29.90
2019-02-02T12:24:14.356Z,31.05
2019-02-02T12:25:36.280Z,29.00
2019-02-02T12:26:53.063Z,30.12
2019-02-02T12:28:10.277Z,30.02
2019-02-02T12:29:27.106Z,31.10
2019-02-02T12:30:43.612Z,31.97
2019-02-02T12:32:00.189Z,29.52
2019-02-02T12:33:16.603Z,30.50
2019-02-02T12:34:33.033Z,29.42
2019-02-02T12:35:49.555Z,32.03
2019-02-02T12:37:06.125Z,31.95
2019-02-02T12:38:23.019Z,31.65
2019-02-02T12:39:40.339Z,31.02
2019-02-02T12:40:59.675Z,33.58
2019-02-02T12:42:16.331Z,30.57
2019-02-02T12:43:32.961Z,32.00
2019-02-02T12:44:49.244Z,31.97
2019-02-02T12:46:05.912Z,31.85
2019-02-02T12:47:22.270Z,33.02
2019-02-02T12:48:38.828Z,29.92
2019-02-02T12:49:55.286Z,32.33
2019-02-02T12:51:11.632Z,30.65
2019-02-02T12:52:28.149Z,29.10
2019-02-02T12:53:44.671Z,30.35
2019-02-02T12:55:01.149Z,30.90
2019-02-02T12:56:17.528Z,32.53
2019-02-02T12:57:34.039Z,30.55
2019-02-02T12:58:50.525Z,32.48
2019-02-02T13:00:06.989Z,35.25
2019-02-02T13:01:23.425Z,33.02
2019-02-02T13:02:39.857Z,31.60
2019-02-02T13:04:02.358Z,30.88
2019-02-02T13:05:15.356Z,31.75
2019-02-02T13:06:30.589Z,31.02
2019-02-02T13:07:47.217Z,31.87
2019-02-02T13:09:04.662Z,35.25
2019-02-02T13:10:24.674Z,32.28
2019-02-02T13:11:41.469Z,30.65
2019-02-02T13:12:57.863Z,32.35
2019-02-02T13:14:14.341Z,31.48
2019-02-02T13:15:30.853Z,31.17
2019-02-02T13:16:50.069Z,31.75
2019-02-02T13:18:05.938Z,30.12
2019-02-02T13:19:23.208Z,34.73
2019-02-02T13:20:39.653Z,32.15
2019-02-02T13:21:56.001Z,31.15
2019-02-02T13:23:12.703Z,28.92
2019-02-02T13:24:29.949Z,30.90
2019-02-02T13:25:47.697Z,29.45
2019-02-02T13:27:05.623Z,31.20
2019-02-02T13:28:23.337Z,29.82
2019-02-02T13:29:41.254Z,27.95
2019-02-02T13:30:59.245Z,30.80
2019-02-02T13:32:16.992Z,29.77
2019-02-02T13:33:35.300Z,27.93
2019-02-02T13:34:53.207Z,29.12
2019-02-02T13:36:10.103Z,28.55
2019-02-02T13:37:26.897Z,29.07
2019-02-02T13:38:43.585Z,27.17
2019-02-02T13:39:59.978Z,29.85
2019-02-02T13:41:17.316Z,28.60
2019-02-02T13:42:34.547Z,27.30
2019-02-02T13:43:51.030Z,27.90
2019-02-02T13:45:08.216Z,26.33
2019-02-02T13:46:24.762Z,26.57
2019-02-02T13:47:42.052Z,26.37
2019-02-02T13:48:58.931Z,27.00
2019-02-02T13:50:15.343Z,30.92
2019-02-02T13:51:31.750Z,29.20
2019-02-02T13:52:48.006Z,28.12
2019-02-02T13:54:08.305Z,30.37
2019-02-02T13:55:24.851Z,28.40
2019-02-02T13:56:41.283Z,28.07
2019-02-02T13:57:57.814Z,27.82
2019-02-02T13:59:13.037Z,26.55
2019-02-02T14:00:29.841Z,26.82
2019-02-02T14:01:46.433Z,27.42
2019-02-02T14:03:04.180Z,26.82
2019-02-02T14:04:20.641Z,27.00
2019-02-02T14:05:37.070Z,26.75
2019-02-02T14:06:53.631Z,26.57
2019-02-02T14:08:10.101Z,25.27
2019-02-02T14:09:26.518Z,29.20
2019-02-02T14:10:43.293Z,26.35
2019-02-02T14:11:59.706Z,26.33
2019-02-02T14:13:16.951Z,24.02
2019-02-02T14:14:34.081Z,24.07
2019-02-02T14:15:50.797Z,23.20
2019-02-02T14:17:08.074Z,27.52
2019-02-02T14:18:24.609Z,24.72
2019-02-02T14:19:41.080Z,24.63
2019-02-02T14:20:57.357Z,22.65
2019-02-02T14:22:14.567Z,25.85
2019-02-02T14:23:31.160Z,26.80
2019-02-02T14:24:48.263Z,24.85
2019-02-02T14:26:04.788Z,24.45
2019-02-02T14:27:21.139Z,23.42
2019-02-02T14:28:38.209Z,23.10
2019-02-02T14:29:54.654Z,23.45
2019-02-02T14:31:11.395Z,26.23
2019-02-02T14:32:28.317Z,23.27
2019-02-02T14:33:44.621Z,24.00
2019-02-02T14:35:01.976Z,22.55
2019-02-02T14:36:19.331Z,23.32
2019-02-02T14:37:36.641Z,21.10
2019-02-02T14:38:53.792Z,22.75
2019-02-02T14:40:10.322Z,23.18
2019-02-02T14:41:26.796Z,20.97
2019-02-02T14:42:43.208Z,18.67
2019-02-02T14:44:00.087Z,19.60
2019-02-02T14:45:16.029Z,18.17
2019-02-02T14:46:32.846Z,18.52
2019-02-02T14:47:50.030Z,17.95
2019-02-02T14:49:06.589Z,17.37
2019-02-02T14:50:23.430Z,17.02
2019-02-02T14:51:39.916Z,15.70
2019-02-02T14:52:56.510Z,17.48
2019-02-02T14:54:13.497Z,16.15
2019-02-02T14:55:30.761Z,17.48
2019-02-02T14:56:48.182Z,16.82
2019-02-02T14:58:11.802Z,18.02
2019-02-02T14:59:28.115Z,16.77
2019-02-02T15:00:44.573Z,16.87
2019-02-02T15:02:00.936Z,16.60
2019-02-02T15:03:25.593Z,15.75
2019-02-02T15:04:35.770Z,16.57
2019-02-02T15:05:52.892Z,15.50
2019-02-02T15:07:09.263Z,15.80
2019-02-02T15:08:25.800Z,14.90
2019-02-02T15:09:42.385Z,17.87
2019-02-02T15:10:59.310Z,14.73
2019-02-02T15:12:15.862Z,13.28
2019-02-02T15:13:33.113Z,15.15
2019-02-02T15:14:49.664Z,14.83
2019-02-02T15:16:06.062Z,15.75
2019-02-02T15:17:22.568Z,15.70
2019-02-02T15:18:38.099Z,13.95
2019-02-02T15:20:02.286Z,14.80
2019-02-02T15:21:18.679Z,14.45
2019-02-02T15:22:35.099Z,15.50
2019-02-02T15:23:51.828Z,15.35
2019-02-02T15:25:09.034Z,16.55